Terminal Aerodrome Forecast
Issued by NWS

Home | Current Version | Previous Version | Graphics & Text | Print | Product List | Glossary On
Versions: 1 2 3 4 5 6 7 8 9 10 11 12 13 14 15 16 17 18 19 20 21 22 23 24 25 26
000
FTUS43 KICT 180413 AAB
TAFSLN
TAF AMD
KSLN 180413Z 1804/1824 09006KT 1SM -SN BKN015
      TEMPO 1805/1809 1/2SM SN OVC007
     FM181000 04008KT 2SM -FZDZSN BR BKN004 OVC009
     FM181800 06006KT 5SM BR BKN007
     FM182100 32008KT P6SM SCT015 BKN050=

USA.gov is the U.S. government's official web portal to all federal, state and local government web resources and services.